Cudworth, Canada
Current Conditions -  °F | °C
As of 12:00 PM on Thursday 29 Jan 2015 (Local Time) from CYXE Reporting Station
Overcast Overcast  
Wind Chill: -3°   Ceiling: 900
Heat Index:   Visibility: 15mi
Dew Point:   Wind: 6mph
Humidity: 85%   Direction: 110°ESE
Pressure: 30.49"   Gusts: NA
Location:  52.48°N, 105.72°W
Report Text: CYXE 291800Z 11005KT 15SM OVC009 M14/M16 A3049 RMK SC8 SLP370
Loading
Personal Weather Stations






























Interactive Weather Map New forecast layout! Learn more

10-Day Weather Forecast

Advertisements
Track Severe Weather on mobile